Архив погоды в Кашире

Метеограмма Кашира
Четверг, 18 Октября
Время местн. Темп Ветер Видим Явления Облачность нижн/средн/верх Атм. давл. Влжн Точка росы ВНГО R Сост. почвы Tg s
Напр Скр Прв ур.ст ур.м изм
00:00 +6.6° Ю-З 1 - 10 км - ясно 750 771 0 89% +4.9° более 2.5 км - - - -
Среда, 17 Октября
Время местн. Темп Ветер Видим Явления Облачность нижн/средн/верх Атм. давл. Влжн Точка росы ВНГО R Сост. почвы Tg s
Напр Скр Прв ур.ст ур.м изм
21:00 +8.9° З,Ю-З 1 - 10 км - ясно 750 770 +0.3 80% +5.7° более 2.5 км 0 - - -
18:00 +12.3° З 1 - 10 км - ясно 750 770 +0.1 67% +6.3° более 2.5 км - - - -
15:00 +17.3° З,С-З 2 - 20 км - ясно 750 770 -0.3 48% +6.2° более 2.5 км - - - -
12:00 +14° З 2 - 20 км - ясно 750 770 +0.6 59% +6.2° более 2.5 км - - - -
09:00 +9° З,С-З 3 - 20 км - ясно 750 770 +0.5 78% +5.4° более 2.5 км 0 Влажная (без луж) - -
06:00 +8.5° З 3 - 10 км - ясно 749 769 -0.2 79% +5° более 2.5 км - - - -
03:00 +10.2° З 3 - 10 км - ясно 750 770 +0.4 72% +5.3° более 2.5 км - - - -
00:00 +11.2° З 2 - 10 км - ясно 749 769 -0.3 68% +5.5° более 2.5 км - - - -
Вторник, 16 Октября
Время местн. Темп Ветер Видим Явления Облачность нижн/средн/верх Атм. давл. Влжн Точка росы ВНГО R Сост. почвы Tg s
Напр Скр Прв ур.ст ур.м изм
21:00 +12° З 3 - 10 км - ясно 750 769 -0.2 64% +5.3° более 2.5 км 0 - - -
18:00 +14.2° З,Ю-З 2 - 10 км - переменная облачность 750 769 -0.7 46% +2.9° - - - - -
15:00 +17.2° З,С-З 2 - 20 км - переменная облачность 750 770 -0.8 39% +3.3° более 2.5 км - - - -
12:00 +13.2° З,С-З 2 - 20 км - переменная облачность 751 771 0 68% +7.4° более 2.5 км - - - -
09:00 +8.5° З,Ю-З 2 - 4 км дымка облачно с прояснениями 751 771 -0.2 88% +6.6° более 2.5 км 0 Влажная (без луж) - -
06:00 +7.7° З 2 - 10 км - ясно 751 772 -0.2 90% +6.2° более 2.5 км - - - -
03:00 +9.3° З 2 - 10 км - ясно 752 772 +0.5 84% +6.8° более 2.5 км - - - -
00:00 +10.6° З 2 - 10 км - ясно 751 771 -0.2 79% +7.2° более 2.5 км - - - -
Понедельник, 15 Октября
Время местн. Темп Ветер Видим Явления Облачность нижн/средн/верх Атм. давл. Влжн Точка росы ВНГО R Сост. почвы Tg s
Напр Скр Прв ур.ст ур.м изм
21:00 +12.5° З 2 - 10 км - ясно 751 771 +0.1 73% +7.8° более 2.5 км 0 - - -
18:00 +14.9° З 2 - 10 км - переменная облачность 751 771 -0.2 61% +7.5° - - - - -
15:00 +18.4° С-З 2 - 20 км облака рассеиваются {туман} ясно 752 771 -0.5 50% +7.9° более 2.5 км - - - -
12:00 +10.7° З 2 - менее 100 м туман неба не видно 752 772 +0.5 95% +10° - - - - -
09:00 +8.2° З 3 - 0.5 км туман неба не видно 752 772 +0.4 95% +7.5° - 0 Влажная (без луж) - -
06:00 +9° З,С-З 3 - 10 км - ясно 751 771 -0.1 94% +8.1° более 2.5 км - - - -
03:00 +10.1° З,С-З 2 - 10 км - ясно 751 771 +0.3 92% +8.8° более 2.5 км - - - -
00:00 +11.1° З 2 - 10 км - ясно 751 771 +0.3 87% +9.1° более 2.5 км - - - -
Воскресенье, 14 Октября
Время местн. Темп Ветер Видим Явления Облачность нижн/средн/верх Атм. давл. Влжн Точка росы ВНГО R Сост. почвы Tg s
Напр Скр Прв ур.ст ур.м изм
21:00 +13.1° З 2 - 10 км - преимущественно облачно 750 770 +0.2 79% +9.6° 1 км 0 - - -